Gillette Campbell County Airport
KGCC : rendu visible

Aérodrome :











RETROUVEZ-NOUS SUR...

 
LOGIN :

S'inscrire | Disclaimer

   EN    FR    IT 

 









Légende :    VFR   VFR Marginal   IFR   IFR Intensif   IFR Très Intensif
Visi : 
Plafond : 
>= 8 km
>= 3000ft
5 à 8 km
1000 à 3000 ft
1500m à 5 km
500 à 1000 ft
800 à 1500m
200 à 500 ft
< 800m
< 200 ft
Symboles :   Orages  Brouillard  Fortes neiges  Fortes précipitations  Vent > 20 kt






- Altitude de l'aérodrome : 4365 ft


KGCC - Gillette Campbell County

DERNIER METAR :
  • 190353Z AUTO 00000KT 10SM FEW095 M12/M14 A3031 RMK AO2 SLP327 T11221144 $

METARs EXPIRÉS :
  • 190253Z AUTO 22004KT 10SM CLR M13/M15 A3030 RMK AO2 SLP329 T11281150 53010 $
  • 190153Z AUTO 00000KT 10SM CLR M13/M15 A3029 RMK AO2 SLP324 T11281150 $

TAF KGCC
Valide du 19 à 00h jusqu'au 20 à 00h UTC


182326Z 1900/1924 30007KT P6SM FEW250
FM191000 23009KT P6SM SCT060 SCT200
FM192000 30009KT P6SM SCT200



MET'MAP, la Météo Aéronautique d'un coup d'oeil ! - Copyright ORBIFLY Décembre 2007 - Disclaimer

ORBIFLY MET'MAP TEAM :

Programmation & Développement : Alexandra Zaïnal
Sur une idée originale de : Baudouin d'Aumeries
Assistance à la programmation : Marc-Olivier Méhu
Soutien technique & logistique : Manuel Goepfert

Contact : metmap@orbifly.com




SOURCES & CREDITS :

   NOAA       Earth
Advisory